sensor_id;sensor_type;location;lat;lon;timestamp;P1;durP1;ratioP1;P2;durP2;ratioP2
11386;SDS011;5748;53.102;8.456;2022-08-06T00:02:02;0.40;;;0.40;;
11386;SDS011;5748;53.102;8.456;2022-08-06T00:04:29;0.50;;;0.50;;
11386;SDS011;5748;53.102;8.456;2022-08-06T00:07:04;0.50;;;0.50;;
11386;SDS011;5748;53.102;8.456;2022-08-06T00:09:31;1.03;;;0.60;;
11386;SDS011;5748;53.102;8.456;2022-08-06T00:15:01;0.57;;;0.57;;
11386;SDS011;5748;53.102;8.456;2022-08-06T00:17:30;0.50;;;0.50;;
11386;SDS011;5748;53.102;8.456;2022-08-06T00:19:57;0.60;;;0.60;;
11386;SDS011;5748;53.102;8.456;2022-08-06T00:22:25;0.50;;;0.50;;
11386;SDS011;5748;53.102;8.456;2022-08-06T00:24:52;0.53;;;0.50;;
11386;SDS011;5748;53.102;8.456;2022-08-06T00:27:18;0.50;;;0.50;;
11386;SDS011;5748;53.102;8.456;2022-08-06T00:29:47;0.50;;;0.50;;
11386;SDS011;5748;53.102;8.456;2022-08-06T00:32:14;0.50;;;0.50;;
11386;SDS011;5748;53.102;8.456;2022-08-06T00:34:54;0.50;;;0.50;;
11386;SDS011;5748;53.102;8.456;2022-08-06T00:37:21;0.50;;;0.50;;
11386;SDS011;5748;53.102;8.456;2022-08-06T00:39:55;0.47;;;0.47;;
11386;SDS011;5748;53.102;8.456;2022-08-06T00:42:22;0.50;;;0.50;;
11386;SDS011;5748;53.102;8.456;2022-08-06T00:44:57;0.50;;;0.50;;
11386;SDS011;5748;53.102;8.456;2022-08-06T01:01:40;0.60;;;0.60;;
11386;SDS011;5748;53.102;8.456;2022-08-06T01:04:14;0.60;;;0.60;;
11386;SDS011;5748;53.102;8.456;2022-08-06T01:06:46;0.50;;;0.50;;
11386;SDS011;5748;53.102;8.456;2022-08-06T01:13:29;0.50;;;0.50;;
11386;SDS011;5748;53.102;8.456;2022-08-06T01:19:48;0.70;;;0.70;;
11386;SDS011;5748;53.102;8.456;2022-08-06T01:22:37;0.60;;;0.60;;
11386;SDS011;5748;53.102;8.456;2022-08-06T01:25:56;0.70;;;0.70;;
11386;SDS011;5748;53.102;8.456;2022-08-06T01:28:42;0.53;;;0.53;;
11386;SDS011;5748;53.102;8.456;2022-08-06T01:31:14;0.50;;;0.50;;
11386;SDS011;5748;53.102;8.456;2022-08-06T01:33:49;0.60;;;0.60;;
11386;SDS011;5748;53.102;8.456;2022-08-06T01:42:02;0.60;;;0.60;;
11386;SDS011;5748;53.102;8.456;2022-08-06T01:47:30;0.70;;;0.70;;
11386;SDS011;5748;53.102;8.456;2022-08-06T01:49:59;0.70;;;0.70;;
11386;SDS011;5748;53.102;8.456;2022-08-06T01:52:33;0.83;;;0.70;;
11386;SDS011;5748;53.102;8.456;2022-08-06T01:55:05;0.60;;;0.60;;
11386;SDS011;5748;53.102;8.456;2022-08-06T01:57:34;0.70;;;0.70;;
11386;SDS011;5748;53.102;8.456;2022-08-06T02:00:14;0.70;;;0.70;;
11386;SDS011;5748;53.102;8.456;2022-08-06T02:02:41;0.70;;;0.70;;
11386;SDS011;5748;53.102;8.456;2022-08-06T02:05:11;0.77;;;0.77;;
11386;SDS011;5748;53.102;8.456;2022-08-06T02:10:30;0.70;;;0.70;;
11386;SDS011;5748;53.102;8.456;2022-08-06T02:13:00;0.70;;;0.70;;
11386;SDS011;5748;53.102;8.456;2022-08-06T02:15:33;0.70;;;0.70;;
11386;SDS011;5748;53.102;8.456;2022-08-06T02:18:02;0.80;;;0.80;;
11386;SDS011;5748;53.102;8.456;2022-08-06T02:20:33;1.00;;;0.73;;
11386;SDS011;5748;53.102;8.456;2022-08-06T02:23:04;0.90;;;0.90;;
11386;SDS011;5748;53.102;8.456;2022-08-06T02:28:26;0.70;;;0.70;;
11386;SDS011;5748;53.102;8.456;2022-08-06T02:31:15;0.70;;;0.70;;
11386;SDS011;5748;53.102;8.456;2022-08-06T02:33:42;0.60;;;0.60;;
11386;SDS011;5748;53.102;8.456;2022-08-06T02:41:56;0.87;;;0.87;;
11386;SDS011;5748;53.102;8.456;2022-08-06T02:44:36;0.80;;;0.80;;
11386;SDS011;5748;53.102;8.456;2022-08-06T02:47:12;0.70;;;0.70;;
11386;SDS011;5748;53.102;8.456;2022-08-06T02:49:44;0.70;;;0.70;;
11386;SDS011;5748;53.102;8.456;2022-08-06T02:52:15;0.90;;;0.80;;
11386;SDS011;5748;53.102;8.456;2022-08-06T02:54:47;1.60;;;0.80;;
11386;SDS011;5748;53.102;8.456;2022-08-06T02:57:21;0.80;;;0.80;;
11386;SDS011;5748;53.102;8.456;2022-08-06T03:00:01;0.80;;;0.80;;
11386;SDS011;5748;53.102;8.456;2022-08-06T03:02:33;0.93;;;0.93;;
11386;SDS011;5748;53.102;8.456;2022-08-06T03:05:04;0.80;;;0.80;;
11386;SDS011;5748;53.102;8.456;2022-08-06T03:07:41;0.77;;;0.77;;
11386;SDS011;5748;53.102;8.456;2022-08-06T03:10:10;0.90;;;0.90;;
11386;SDS011;5748;53.102;8.456;2022-08-06T03:12:38;1.10;;;1.00;;
11386;SDS011;5748;53.102;8.456;2022-08-06T03:15:05;0.93;;;0.93;;
11386;SDS011;5748;53.102;8.456;2022-08-06T03:17:36;0.90;;;0.70;;
11386;SDS011;5748;53.102;8.456;2022-08-06T03:20:08;0.87;;;0.87;;
11386;SDS011;5748;53.102;8.456;2022-08-06T03:22:37;1.07;;;1.00;;
11386;SDS011;5748;53.102;8.456;2022-08-06T03:25:07;1.00;;;1.00;;
11386;SDS011;5748;53.102;8.456;2022-08-06T03:27:36;0.90;;;0.90;;
11386;SDS011;5748;53.102;8.456;2022-08-06T03:30:18;0.87;;;0.87;;
11386;SDS011;5748;53.102;8.456;2022-08-06T03:32:47;0.90;;;0.90;;
11386;SDS011;5748;53.102;8.456;2022-08-06T03:35:16;0.80;;;0.80;;
11386;SDS011;5748;53.102;8.456;2022-08-06T03:37:45;0.90;;;0.90;;
11386;SDS011;5748;53.102;8.456;2022-08-06T03:40:15;0.90;;;0.90;;
11386;SDS011;5748;53.102;8.456;2022-08-06T03:42:44;0.90;;;0.90;;
11386;SDS011;5748;53.102;8.456;2022-08-06T03:45:14;1.00;;;1.00;;
11386;SDS011;5748;53.102;8.456;2022-08-06T03:47:41;0.90;;;0.90;;
11386;SDS011;5748;53.102;8.456;2022-08-06T03:50:18;0.80;;;0.80;;
11386;SDS011;5748;53.102;8.456;2022-08-06T03:52:48;1.03;;;1.00;;
11386;SDS011;5748;53.102;8.456;2022-08-06T03:55:36;0.80;;;0.80;;
11386;SDS011;5748;53.102;8.456;2022-08-06T03:58:05;0.80;;;0.80;;
11386;SDS011;5748;53.102;8.456;2022-08-06T04:00:38;0.97;;;0.97;;
11386;SDS011;5748;53.102;8.456;2022-08-06T04:03:12;0.87;;;0.87;;
11386;SDS011;5748;53.102;8.456;2022-08-06T04:05:42;1.43;;;0.90;;
11386;SDS011;5748;53.102;8.456;2022-08-06T04:10:47;0.90;;;0.90;;
11386;SDS011;5748;53.102;8.456;2022-08-06T04:13:17;1.00;;;1.00;;
11386;SDS011;5748;53.102;8.456;2022-08-06T04:15:52;1.20;;;1.00;;
11386;SDS011;5748;53.102;8.456;2022-08-06T04:18:23;0.80;;;0.80;;
11386;SDS011;5748;53.102;8.456;2022-08-06T04:21:04;0.90;;;0.90;;
11386;SDS011;5748;53.102;8.456;2022-08-06T04:23:34;0.90;;;0.90;;
11386;SDS011;5748;53.102;8.456;2022-08-06T04:26:04;1.00;;;1.00;;
11386;SDS011;5748;53.102;8.456;2022-08-06T04:31:26;0.93;;;0.93;;
11386;SDS011;5748;53.102;8.456;2022-08-06T04:33:57;1.00;;;1.00;;
11386;SDS011;5748;53.102;8.456;2022-08-06T04:36:28;1.10;;;1.00;;
11386;SDS011;5748;53.102;8.456;2022-08-06T04:38:56;0.83;;;0.83;;
11386;SDS011;5748;53.102;8.456;2022-08-06T04:41:23;1.00;;;1.00;;
11386;SDS011;5748;53.102;8.456;2022-08-06T04:43:51;0.90;;;0.90;;
11386;SDS011;5748;53.102;8.456;2022-08-06T04:46:19;1.10;;;1.00;;
11386;SDS011;5748;53.102;8.456;2022-08-06T04:48:48;0.80;;;0.80;;
11386;SDS011;5748;53.102;8.456;2022-08-06T04:51:17;0.93;;;0.93;;
11386;SDS011;5748;53.102;8.456;2022-08-06T04:53:46;0.97;;;0.87;;
11386;SDS011;5748;53.102;8.456;2022-08-06T04:56:13;0.90;;;0.90;;
11386;SDS011;5748;53.102;8.456;2022-08-06T04:58:40;0.83;;;0.83;;
11386;SDS011;5748;53.102;8.456;2022-08-06T05:01:08;0.80;;;0.80;;
11386;SDS011;5748;53.102;8.456;2022-08-06T05:03:35;1.13;;;1.03;;
11386;SDS011;5748;53.102;8.456;2022-08-06T05:06:03;0.93;;;0.90;;
11386;SDS011;5748;53.102;8.456;2022-08-06T05:08:38;0.87;;;0.87;;
11386;SDS011;5748;53.102;8.456;2022-08-06T05:11:12;0.90;;;0.90;;
11386;SDS011;5748;53.102;8.456;2022-08-06T05:13:45;0.90;;;0.90;;
11386;SDS011;5748;53.102;8.456;2022-08-06T05:16:20;1.70;;;1.07;;
11386;SDS011;5748;53.102;8.456;2022-08-06T05:18:49;0.80;;;0.80;;
11386;SDS011;5748;53.102;8.456;2022-08-06T05:21:20;0.90;;;0.90;;
11386;SDS011;5748;53.102;8.456;2022-08-06T05:23:54;0.90;;;0.90;;
11386;SDS011;5748;53.102;8.456;2022-08-06T05:26:22;0.90;;;0.90;;
11386;SDS011;5748;53.102;8.456;2022-08-06T05:28:50;0.80;;;0.80;;
11386;SDS011;5748;53.102;8.456;2022-08-06T05:31:27;0.80;;;0.80;;
11386;SDS011;5748;53.102;8.456;2022-08-06T05:33:56;0.87;;;0.87;;
11386;SDS011;5748;53.102;8.456;2022-08-06T05:36:23;0.87;;;0.87;;
11386;SDS011;5748;53.102;8.456;2022-08-06T05:38:59;1.50;;;1.00;;
11386;SDS011;5748;53.102;8.456;2022-08-06T05:41:26;0.87;;;0.87;;
11386;SDS011;5748;53.102;8.456;2022-08-06T05:43:54;0.90;;;0.90;;
11386;SDS011;5748;53.102;8.456;2022-08-06T05:46:33;0.90;;;0.90;;
11386;SDS011;5748;53.102;8.456;2022-08-06T05:52:01;1.33;;;1.20;;
11386;SDS011;5748;53.102;8.456;2022-08-06T05:54:38;0.90;;;0.90;;
11386;SDS011;5748;53.102;8.456;2022-08-06T06:00:07;0.90;;;0.90;;
11386;SDS011;5748;53.102;8.456;2022-08-06T06:05:36;1.30;;;0.80;;
11386;SDS011;5748;53.102;8.456;2022-08-06T06:08:04;0.73;;;0.73;;
11386;SDS011;5748;53.102;8.456;2022-08-06T06:10:34;0.67;;;0.67;;
11386;SDS011;5748;53.102;8.456;2022-08-06T06:13:13;0.67;;;0.67;;
11386;SDS011;5748;53.102;8.456;2022-08-06T06:15:42;0.70;;;0.70;;
11386;SDS011;5748;53.102;8.456;2022-08-06T06:18:18;0.97;;;0.80;;
11386;SDS011;5748;53.102;8.456;2022-08-06T06:20:58;0.70;;;0.70;;
11386;SDS011;5748;53.102;8.456;2022-08-06T06:23:34;0.60;;;0.60;;
11386;SDS011;5748;53.102;8.456;2022-08-06T06:26:11;0.60;;;0.60;;
11386;SDS011;5748;53.102;8.456;2022-08-06T06:28:48;0.77;;;0.70;;
11386;SDS011;5748;53.102;8.456;2022-08-06T06:31:25;0.77;;;0.60;;
11386;SDS011;5748;53.102;8.456;2022-08-06T06:34:07;0.50;;;0.50;;
11386;SDS011;5748;53.102;8.456;2022-08-06T06:36:39;0.50;;;0.50;;
11386;SDS011;5748;53.102;8.456;2022-08-06T06:39:36;0.50;;;0.50;;
11386;SDS011;5748;53.102;8.456;2022-08-06T06:42:11;0.50;;;0.50;;
11386;SDS011;5748;53.102;8.456;2022-08-06T06:44:44;0.43;;;0.40;;
11386;SDS011;5748;53.102;8.456;2022-08-06T06:47:18;0.60;;;0.50;;
11386;SDS011;5748;53.102;8.456;2022-08-06T06:49:52;0.60;;;0.60;;
11386;SDS011;5748;53.102;8.456;2022-08-06T06:52:24;0.73;;;0.60;;
11386;SDS011;5748;53.102;8.456;2022-08-06T06:54:57;0.53;;;0.53;;
11386;SDS011;5748;53.102;8.456;2022-08-06T06:57:32;0.40;;;0.40;;
11386;SDS011;5748;53.102;8.456;2022-08-06T07:00:04;0.77;;;0.77;;
11386;SDS011;5748;53.102;8.456;2022-08-06T07:02:40;1.00;;;0.50;;
11386;SDS011;5748;53.102;8.456;2022-08-06T07:05:11;0.50;;;0.50;;
11386;SDS011;5748;53.102;8.456;2022-08-06T07:07:41;0.40;;;0.40;;
11386;SDS011;5748;53.102;8.456;2022-08-06T07:10:11;0.50;;;0.50;;
11386;SDS011;5748;53.102;8.456;2022-08-06T07:12:42;0.43;;;0.43;;
11386;SDS011;5748;53.102;8.456;2022-08-06T07:15:11;0.50;;;0.50;;
11386;SDS011;5748;53.102;8.456;2022-08-06T07:17:41;0.73;;;0.40;;
11386;SDS011;5748;53.102;8.456;2022-08-06T07:20:10;0.50;;;0.50;;
11386;SDS011;5748;53.102;8.456;2022-08-06T07:22:41;0.60;;;0.60;;
11386;SDS011;5748;53.102;8.456;2022-08-06T07:25:11;0.70;;;0.70;;
11386;SDS011;5748;53.102;8.456;2022-08-06T07:27:42;0.50;;;0.50;;
11386;SDS011;5748;53.102;8.456;2022-08-06T07:30:13;1.60;;;0.40;;
11386;SDS011;5748;53.102;8.456;2022-08-06T07:32:43;0.30;;;0.30;;
11386;SDS011;5748;53.102;8.456;2022-08-06T07:35:12;0.30;;;0.30;;
11386;SDS011;5748;53.102;8.456;2022-08-06T07:37:41;0.70;;;0.63;;
11386;SDS011;5748;53.102;8.456;2022-08-06T07:40:15;0.33;;;0.30;;
11386;SDS011;5748;53.102;8.456;2022-08-06T07:42:53;0.40;;;0.30;;
11386;SDS011;5748;53.102;8.456;2022-08-06T07:45:27;0.50;;;0.50;;
11386;SDS011;5748;53.102;8.456;2022-08-06T07:47:58;0.40;;;0.30;;
11386;SDS011;5748;53.102;8.456;2022-08-06T07:50:31;0.30;;;0.30;;
11386;SDS011;5748;53.102;8.456;2022-08-06T07:52:59;0.30;;;0.30;;
11386;SDS011;5748;53.102;8.456;2022-08-06T07:55:27;0.40;;;0.40;;
11386;SDS011;5748;53.102;8.456;2022-08-06T07:57:56;0.40;;;0.40;;
11386;SDS011;5748;53.102;8.456;2022-08-06T08:00:24;0.30;;;0.30;;
11386;SDS011;5748;53.102;8.456;2022-08-06T08:02:52;0.30;;;0.30;;
11386;SDS011;5748;53.102;8.456;2022-08-06T08:05:37;0.33;;;0.33;;
11386;SDS011;5748;53.102;8.456;2022-08-06T08:08:24;0.33;;;0.30;;
11386;SDS011;5748;53.102;8.456;2022-08-06T08:10:51;0.30;;;0.30;;
11386;SDS011;5748;53.102;8.456;2022-08-06T08:13:21;0.30;;;0.30;;
11386;SDS011;5748;53.102;8.456;2022-08-06T08:15:51;0.30;;;0.30;;
11386;SDS011;5748;53.102;8.456;2022-08-06T08:18:19;0.20;;;0.20;;
11386;SDS011;5748;53.102;8.456;2022-08-06T08:20:46;0.30;;;0.30;;
11386;SDS011;5748;53.102;8.456;2022-08-06T08:23:21;0.30;;;0.30;;
11386;SDS011;5748;53.102;8.456;2022-08-06T08:25:49;0.30;;;0.30;;
11386;SDS011;5748;53.102;8.456;2022-08-06T08:28:17;0.30;;;0.30;;
11386;SDS011;5748;53.102;8.456;2022-08-06T08:30:45;0.20;;;0.20;;
11386;SDS011;5748;53.102;8.456;2022-08-06T08:33:12;0.37;;;0.30;;
11386;SDS011;5748;53.102;8.456;2022-08-06T08:35:49;0.30;;;0.20;;
11386;SDS011;5748;53.102;8.456;2022-08-06T08:38:16;0.22;;;0.22;;
11386;SDS011;5748;53.102;8.456;2022-08-06T08:40:49;0.20;;;0.20;;
11386;SDS011;5748;53.102;8.456;2022-08-06T08:43:19;0.30;;;0.30;;
11386;SDS011;5748;53.102;8.456;2022-08-06T08:45:51;0.82;;;0.40;;
11386;SDS011;5748;53.102;8.456;2022-08-06T08:48:20;0.20;;;0.20;;
11386;SDS011;5748;53.102;8.456;2022-08-06T08:51:12;0.40;;;0.40;;
11386;SDS011;5748;53.102;8.456;2022-08-06T08:53:42;0.73;;;0.40;;
11386;SDS011;5748;53.102;8.456;2022-08-06T08:56:16;0.25;;;0.20;;
11386;SDS011;5748;53.102;8.456;2022-08-06T08:58:43;0.30;;;0.30;;
11386;SDS011;5748;53.102;8.456;2022-08-06T09:01:12;0.28;;;0.28;;
11386;SDS011;5748;53.102;8.456;2022-08-06T09:03:53;0.98;;;0.40;;
11386;SDS011;5748;53.102;8.456;2022-08-06T09:06:20;0.30;;;0.30;;
11386;SDS011;5748;53.102;8.456;2022-08-06T09:08:48;0.30;;;0.30;;
11386;SDS011;5748;53.102;8.456;2022-08-06T09:11:16;0.40;;;0.40;;
11386;SDS011;5748;53.102;8.456;2022-08-06T09:13:43;0.30;;;0.30;;
11386;SDS011;5748;53.102;8.456;2022-08-06T09:18:44;0.20;;;0.20;;
11386;SDS011;5748;53.102;8.456;2022-08-06T09:23:41;0.43;;;0.25;;
11386;SDS011;5748;53.102;8.456;2022-08-06T09:26:09;0.22;;;0.22;;
11386;SDS011;5748;53.102;8.456;2022-08-06T09:28:36;0.40;;;0.40;;
11386;SDS011;5748;53.102;8.456;2022-08-06T09:31:07;0.30;;;0.30;;
11386;SDS011;5748;53.102;8.456;2022-08-06T09:33:40;0.22;;;0.22;;
11386;SDS011;5748;53.102;8.456;2022-08-06T09:36:20;0.30;;;0.30;;
11386;SDS011;5748;53.102;8.456;2022-08-06T09:38:49;0.30;;;0.30;;
11386;SDS011;5748;53.102;8.456;2022-08-06T09:41:18;0.20;;;0.20;;
11386;SDS011;5748;53.102;8.456;2022-08-06T09:43:48;0.30;;;0.30;;
11386;SDS011;5748;53.102;8.456;2022-08-06T09:46:17;0.32;;;0.32;;
11386;SDS011;5748;53.102;8.456;2022-08-06T09:49:03;0.30;;;0.30;;
11386;SDS011;5748;53.102;8.456;2022-08-06T09:51:30;0.45;;;0.30;;
11386;SDS011;5748;53.102;8.456;2022-08-06T09:54:12;0.35;;;0.35;;
11386;SDS011;5748;53.102;8.456;2022-08-06T09:56:41;0.30;;;0.30;;
11386;SDS011;5748;53.102;8.456;2022-08-06T09:59:09;0.30;;;0.20;;
11386;SDS011;5748;53.102;8.456;2022-08-06T10:01:39;0.43;;;0.38;;
11386;SDS011;5748;53.102;8.456;2022-08-06T10:04:13;0.30;;;0.30;;
11386;SDS011;5748;53.102;8.456;2022-08-06T10:06:50;0.20;;;0.20;;
11386;SDS011;5748;53.102;8.456;2022-08-06T10:09:19;0.20;;;0.20;;
11386;SDS011;5748;53.102;8.456;2022-08-06T10:11:46;0.30;;;0.30;;
11386;SDS011;5748;53.102;8.456;2022-08-06T10:14:23;0.30;;;0.30;;
11386;SDS011;5748;53.102;8.456;2022-08-06T10:17:02;0.50;;;0.50;;
11386;SDS011;5748;53.102;8.456;2022-08-06T10:19:33;0.85;;;0.80;;
11386;SDS011;5748;53.102;8.456;2022-08-06T10:22:04;0.60;;;0.60;;
11386;SDS011;5748;53.102;8.456;2022-08-06T10:24:33;1.33;;;0.60;;
11386;SDS011;5748;53.102;8.456;2022-08-06T10:27:06;0.40;;;0.40;;
11386;SDS011;5748;53.102;8.456;2022-08-06T10:29:42;0.45;;;0.38;;
11386;SDS011;5748;53.102;8.456;2022-08-06T10:32:17;0.20;;;0.20;;
11386;SDS011;5748;53.102;8.456;2022-08-06T10:35:03;0.40;;;0.40;;
11386;SDS011;5748;53.102;8.456;2022-08-06T10:37:35;0.30;;;0.30;;
11386;SDS011;5748;53.102;8.456;2022-08-06T10:40:07;0.40;;;0.30;;
11386;SDS011;5748;53.102;8.456;2022-08-06T10:42:40;0.30;;;0.30;;
11386;SDS011;5748;53.102;8.456;2022-08-06T10:45:08;0.22;;;0.22;;
11386;SDS011;5748;53.102;8.456;2022-08-06T10:47:38;0.30;;;0.30;;
11386;SDS011;5748;53.102;8.456;2022-08-06T10:50:07;0.57;;;0.40;;
11386;SDS011;5748;53.102;8.456;2022-08-06T10:52:35;0.25;;;0.25;;
11386;SDS011;5748;53.102;8.456;2022-08-06T10:55:03;0.30;;;0.30;;
11386;SDS011;5748;53.102;8.456;2022-08-06T10:57:34;0.52;;;0.30;;
11386;SDS011;5748;53.102;8.456;2022-08-06T11:00:02;0.25;;;0.20;;
11386;SDS011;5748;53.102;8.456;2022-08-06T11:02:32;0.22;;;0.22;;
11386;SDS011;5748;53.102;8.456;2022-08-06T11:05:12;0.20;;;0.20;;
11386;SDS011;5748;53.102;8.456;2022-08-06T11:11:16;0.10;;;0.10;;
11386;SDS011;5748;53.102;8.456;2022-08-06T11:14:13;0.17;;;0.17;;
11386;SDS011;5748;53.102;8.456;2022-08-06T11:16:40;0.20;;;0.20;;
11386;SDS011;5748;53.102;8.456;2022-08-06T11:25:10;0.20;;;0.20;;
11386;SDS011;5748;53.102;8.456;2022-08-06T11:27:55;0.28;;;0.28;;
11386;SDS011;5748;53.102;8.456;2022-08-06T11:30:35;0.63;;;0.30;;
11386;SDS011;5748;53.102;8.456;2022-08-06T11:33:05;0.22;;;0.22;;
11386;SDS011;5748;53.102;8.456;2022-08-06T11:35:40;0.20;;;0.20;;
11386;SDS011;5748;53.102;8.456;2022-08-06T11:41:35;0.20;;;0.20;;
11386;SDS011;5748;53.102;8.456;2022-08-06T11:44:15;0.30;;;0.30;;
11386;SDS011;5748;53.102;8.456;2022-08-06T11:46:45;0.38;;;0.30;;
11386;SDS011;5748;53.102;8.456;2022-08-06T11:49:34;0.40;;;0.40;;
11386;SDS011;5748;53.102;8.456;2022-08-06T11:52:04;0.25;;;0.25;;
11386;SDS011;5748;53.102;8.456;2022-08-06T11:54:34;0.80;;;0.30;;
11386;SDS011;5748;53.102;8.456;2022-08-06T11:57:23;0.25;;;0.25;;
11386;SDS011;5748;53.102;8.456;2022-08-06T12:02:52;0.50;;;0.40;;
11386;SDS011;5748;53.102;8.456;2022-08-06T12:05:38;0.40;;;0.40;;
11386;SDS011;5748;53.102;8.456;2022-08-06T12:08:22;0.40;;;0.20;;
11386;SDS011;5748;53.102;8.456;2022-08-06T12:14:05;0.20;;;0.20;;
11386;SDS011;5748;53.102;8.456;2022-08-06T12:17:11;0.20;;;0.20;;
11386;SDS011;5748;53.102;8.456;2022-08-06T12:19:44;0.20;;;0.20;;
11386;SDS011;5748;53.102;8.456;2022-08-06T12:22:19;0.30;;;0.30;;
11386;SDS011;5748;53.102;8.456;2022-08-06T12:24:55;0.30;;;0.30;;
11386;SDS011;5748;53.102;8.456;2022-08-06T12:27:30;0.20;;;0.20;;
11386;SDS011;5748;53.102;8.456;2022-08-06T12:29:59;0.38;;;0.20;;
11386;SDS011;5748;53.102;8.456;2022-08-06T12:32:28;0.20;;;0.20;;
11386;SDS011;5748;53.102;8.456;2022-08-06T12:34:59;0.28;;;0.28;;
11386;SDS011;5748;53.102;8.456;2022-08-06T12:37:35;0.30;;;0.30;;
11386;SDS011;5748;53.102;8.456;2022-08-06T12:40:06;0.20;;;0.20;;
11386;SDS011;5748;53.102;8.456;2022-08-06T12:43:07;0.65;;;0.40;;
11386;SDS011;5748;53.102;8.456;2022-08-06T12:45:36;0.20;;;0.20;;
11386;SDS011;5748;53.102;8.456;2022-08-06T12:48:05;0.30;;;0.30;;
11386;SDS011;5748;53.102;8.456;2022-08-06T12:50:34;0.30;;;0.30;;
11386;SDS011;5748;53.102;8.456;2022-08-06T12:53:03;0.52;;;0.30;;
11386;SDS011;5748;53.102;8.456;2022-08-06T12:55:32;0.30;;;0.20;;
11386;SDS011;5748;53.102;8.456;2022-08-06T12:58:02;0.30;;;0.30;;
11386;SDS011;5748;53.102;8.456;2022-08-06T13:00:30;0.20;;;0.20;;
11386;SDS011;5748;53.102;8.456;2022-08-06T13:02:57;0.40;;;0.40;;
11386;SDS011;5748;53.102;8.456;2022-08-06T13:05:25;0.35;;;0.35;;
11386;SDS011;5748;53.102;8.456;2022-08-06T13:07:53;0.60;;;0.30;;
11386;SDS011;5748;53.102;8.456;2022-08-06T13:10:21;0.52;;;0.30;;
11386;SDS011;5748;53.102;8.456;2022-08-06T13:12:52;0.30;;;0.30;;
11386;SDS011;5748;53.102;8.456;2022-08-06T13:15:28;0.65;;;0.50;;
11386;SDS011;5748;53.102;8.456;2022-08-06T13:18:00;0.40;;;0.40;;
11386;SDS011;5748;53.102;8.456;2022-08-06T13:20:42;0.28;;;0.28;;
11386;SDS011;5748;53.102;8.456;2022-08-06T13:23:11;0.63;;;0.50;;
11386;SDS011;5748;53.102;8.456;2022-08-06T13:25:41;0.32;;;0.32;;
11386;SDS011;5748;53.102;8.456;2022-08-06T13:28:09;0.52;;;0.40;;
11386;SDS011;5748;53.102;8.456;2022-08-06T13:30:40;0.30;;;0.30;;
11386;SDS011;5748;53.102;8.456;2022-08-06T13:33:12;0.50;;;0.32;;
11386;SDS011;5748;53.102;8.456;2022-08-06T13:35:40;0.40;;;0.30;;
11386;SDS011;5748;53.102;8.456;2022-08-06T13:41:00;0.57;;;0.25;;
11386;SDS011;5748;53.102;8.456;2022-08-06T13:43:35;0.28;;;0.22;;
11386;SDS011;5748;53.102;8.456;2022-08-06T13:46:08;0.38;;;0.30;;
11386;SDS011;5748;53.102;8.456;2022-08-06T13:48:56;0.85;;;0.40;;
11386;SDS011;5748;53.102;8.456;2022-08-06T13:51:31;0.38;;;0.38;;
11386;SDS011;5748;53.102;8.456;2022-08-06T13:53:58;0.30;;;0.30;;
11386;SDS011;5748;53.102;8.456;2022-08-06T13:56:32;0.60;;;0.40;;
11386;SDS011;5748;53.102;8.456;2022-08-06T13:58:59;0.30;;;0.30;;
11386;SDS011;5748;53.102;8.456;2022-08-06T14:01:30;0.35;;;0.35;;
11386;SDS011;5748;53.102;8.456;2022-08-06T14:06:53;0.32;;;0.32;;
11386;SDS011;5748;53.102;8.456;2022-08-06T14:12:15;0.70;;;0.32;;
11386;SDS011;5748;53.102;8.456;2022-08-06T14:14:48;0.60;;;0.40;;
11386;SDS011;5748;53.102;8.456;2022-08-06T14:17:17;1.05;;;0.40;;
11386;SDS011;5748;53.102;8.456;2022-08-06T14:19:45;0.57;;;0.57;;
11386;SDS011;5748;53.102;8.456;2022-08-06T14:22:13;0.50;;;0.50;;
11386;SDS011;5748;53.102;8.456;2022-08-06T14:24:41;0.60;;;0.60;;
11386;SDS011;5748;53.102;8.456;2022-08-06T14:27:14;0.60;;;0.60;;
11386;SDS011;5748;53.102;8.456;2022-08-06T14:29:43;0.60;;;0.60;;
11386;SDS011;5748;53.102;8.456;2022-08-06T14:32:20;0.45;;;0.45;;
11386;SDS011;5748;53.102;8.456;2022-08-06T14:34:47;0.50;;;0.50;;
11386;SDS011;5748;53.102;8.456;2022-08-06T14:37:19;0.60;;;0.60;;
11386;SDS011;5748;53.102;8.456;2022-08-06T14:39:46;0.65;;;0.52;;
11386;SDS011;5748;53.102;8.456;2022-08-06T14:45:07;0.65;;;0.60;;
11386;SDS011;5748;53.102;8.456;2022-08-06T14:47:49;1.10;;;0.68;;
11386;SDS011;5748;53.102;8.456;2022-08-06T14:50:17;1.00;;;0.90;;
11386;SDS011;5748;53.102;8.456;2022-08-06T14:52:51;1.35;;;1.00;;
11386;SDS011;5748;53.102;8.456;2022-08-06T14:55:26;1.25;;;0.90;;
11386;SDS011;5748;53.102;8.456;2022-08-06T14:57:59;1.40;;;1.10;;
11386;SDS011;5748;53.102;8.456;2022-08-06T15:00:28;0.90;;;0.90;;
11386;SDS011;5748;53.102;8.456;2022-08-06T15:02:56;1.23;;;1.13;;
11386;SDS011;5748;53.102;8.456;2022-08-06T15:05:25;1.30;;;1.20;;
11386;SDS011;5748;53.102;8.456;2022-08-06T15:10:39;1.90;;;1.60;;
11386;SDS011;5748;53.102;8.456;2022-08-06T15:13:08;1.65;;;1.55;;
11386;SDS011;5748;53.102;8.456;2022-08-06T15:15:35;1.50;;;1.40;;
11386;SDS011;5748;53.102;8.456;2022-08-06T15:18:09;1.60;;;1.50;;
11386;SDS011;5748;53.102;8.456;2022-08-06T15:20:44;1.50;;;1.40;;
11386;SDS011;5748;53.102;8.456;2022-08-06T15:23:12;1.50;;;1.40;;
11386;SDS011;5748;53.102;8.456;2022-08-06T15:25:40;1.70;;;1.60;;
11386;SDS011;5748;53.102;8.456;2022-08-06T15:28:07;1.50;;;1.40;;
11386;SDS011;5748;53.102;8.456;2022-08-06T15:30:48;1.77;;;1.67;;
11386;SDS011;5748;53.102;8.456;2022-08-06T15:33:16;1.70;;;1.60;;
11386;SDS011;5748;53.102;8.456;2022-08-06T15:35:44;2.13;;;2.00;;
11386;SDS011;5748;53.102;8.456;2022-08-06T15:38:17;2.00;;;1.90;;
11386;SDS011;5748;53.102;8.456;2022-08-06T15:40:51;1.63;;;1.52;;
11386;SDS011;5748;53.102;8.456;2022-08-06T15:45:46;1.90;;;1.80;;
11386;SDS011;5748;53.102;8.456;2022-08-06T15:48:13;1.60;;;1.50;;
11386;SDS011;5748;53.102;8.456;2022-08-06T15:50:42;1.70;;;1.60;;
11386;SDS011;5748;53.102;8.456;2022-08-06T15:53:11;1.67;;;1.58;;
11386;SDS011;5748;53.102;8.456;2022-08-06T15:55:38;2.10;;;1.90;;
11386;SDS011;5748;53.102;8.456;2022-08-06T15:58:05;2.63;;;2.10;;
11386;SDS011;5748;53.102;8.456;2022-08-06T16:00:32;2.22;;;2.03;;
11386;SDS011;5748;53.102;8.456;2022-08-06T16:03:01;1.70;;;1.60;;
11386;SDS011;5748;53.102;8.456;2022-08-06T16:05:28;2.25;;;2.05;;
11386;SDS011;5748;53.102;8.456;2022-08-06T16:07:56;2.20;;;2.00;;
11386;SDS011;5748;53.102;8.456;2022-08-06T16:10:23;1.98;;;1.88;;
11386;SDS011;5748;53.102;8.456;2022-08-06T16:12:50;2.20;;;2.00;;
11386;SDS011;5748;53.102;8.456;2022-08-06T16:15:18;1.85;;;1.75;;
11386;SDS011;5748;53.102;8.456;2022-08-06T16:17:45;2.15;;;1.95;;
11386;SDS011;5748;53.102;8.456;2022-08-06T16:20:12;2.50;;;2.17;;
11386;SDS011;5748;53.102;8.456;2022-08-06T16:22:40;2.15;;;2.00;;
11386;SDS011;5748;53.102;8.456;2022-08-06T16:25:09;2.63;;;2.42;;
11386;SDS011;5748;53.102;8.456;2022-08-06T16:27:37;2.40;;;2.20;;
11386;SDS011;5748;53.102;8.456;2022-08-06T16:30:06;2.30;;;2.10;;
11386;SDS011;5748;53.102;8.456;2022-08-06T16:32:34;2.20;;;2.00;;
11386;SDS011;5748;53.102;8.456;2022-08-06T16:35:01;2.42;;;2.22;;
11386;SDS011;5748;53.102;8.456;2022-08-06T16:37:28;2.47;;;2.28;;
11386;SDS011;5748;53.102;8.456;2022-08-06T16:39:55;2.42;;;2.22;;
11386;SDS011;5748;53.102;8.456;2022-08-06T16:42:24;2.15;;;1.95;;
11386;SDS011;5748;53.102;8.456;2022-08-06T16:44:51;2.60;;;2.40;;
11386;SDS011;5748;53.102;8.456;2022-08-06T16:47:18;2.25;;;2.05;;
11386;SDS011;5748;53.102;8.456;2022-08-06T16:49:45;2.00;;;1.90;;
11386;SDS011;5748;53.102;8.456;2022-08-06T16:52:12;2.40;;;2.20;;
11386;SDS011;5748;53.102;8.456;2022-08-06T16:54:38;2.40;;;2.20;;
11386;SDS011;5748;53.102;8.456;2022-08-06T16:57:05;2.40;;;2.20;;
11386;SDS011;5748;53.102;8.456;2022-08-06T16:59:34;2.60;;;2.40;;
11386;SDS011;5748;53.102;8.456;2022-08-06T17:02:01;2.70;;;2.50;;
11386;SDS011;5748;53.102;8.456;2022-08-06T17:04:45;2.38;;;2.17;;
11386;SDS011;5748;53.102;8.456;2022-08-06T17:07:12;2.40;;;2.15;;
11386;SDS011;5748;53.102;8.456;2022-08-06T17:09:39;2.45;;;2.25;;